createdAt,value
2018-04-14T00:00:55.881Z,5.80
2018-04-14T00:03:23.484Z,7.37
2018-04-14T00:05:51.004Z,5.67
2018-04-14T00:08:18.687Z,5.07
2018-04-14T00:10:46.282Z,6.73
2018-04-14T00:13:14.518Z,5.97
2018-04-14T00:15:42.036Z,12.10
2018-04-14T00:18:10.311Z,8.10
2018-04-14T00:20:37.830Z,7.20
2018-04-14T00:23:05.315Z,9.73
2018-04-14T00:25:32.828Z,9.93
2018-04-14T00:28:01.852Z,6.57
2018-04-14T00:30:30.102Z,7.10
2018-04-14T00:32:57.573Z,6.97
2018-04-14T00:35:25.163Z,10.50
2018-04-14T00:37:52.664Z,7.10
2018-04-14T00:40:20.334Z,10.63
2018-04-14T00:42:47.852Z,10.67
2018-04-14T00:45:15.474Z,9.97
2018-04-14T00:47:42.962Z,8.50
2018-04-14T00:50:10.475Z,9.53
2018-04-14T00:52:38.352Z,9.60
2018-04-14T00:55:05.876Z,13.33
2018-04-14T00:57:33.349Z,11.47
2018-04-14T01:00:00.861Z,11.80
2018-04-14T01:02:28.360Z,16.43
2018-04-14T01:04:56.020Z,17.07
2018-04-14T01:07:23.521Z,13.60
2018-04-14T01:09:51.022Z,17.33
2018-04-14T01:12:18.557Z,15.63
2018-04-14T01:14:46.095Z,15.33
2018-04-14T01:17:13.607Z,18.93
2018-04-14T01:19:41.380Z,17.63
2018-04-14T01:22:09.395Z,20.30
2018-04-14T01:24:36.883Z,16.03
2018-04-14T01:27:04.392Z,16.80
2018-04-14T01:29:32.643Z,15.50
2018-04-14T01:32:00.249Z,15.00
2018-04-14T01:34:28.606Z,15.27
2018-04-14T01:36:56.093Z,16.37
2018-04-14T01:39:23.618Z,17.80
2018-04-14T01:41:51.174Z,16.60
2018-04-14T01:44:18.806Z,18.03
2018-04-14T01:46:46.339Z,19.17
2018-04-14T01:49:13.838Z,20.70
2018-04-14T01:51:41.598Z,16.53
2018-04-14T01:54:09.110Z,18.77
2018-04-14T01:56:37.360Z,18.17
2018-04-14T01:59:04.873Z,20.60
2018-04-14T02:01:32.414Z,20.27
2018-04-14T02:04:00.702Z,21.30
2018-04-14T02:06:28.203Z,21.20
2018-04-14T02:08:56.576Z,22.33
2018-04-14T02:11:24.892Z,20.53
2018-04-14T02:13:52.542Z,20.83
2018-04-14T02:16:20.934Z,22.93
2018-04-14T02:18:49.201Z,23.20
2018-04-14T02:21:16.758Z,24.20
2018-04-14T02:23:44.244Z,20.30
2018-04-14T02:26:11.818Z,23.03
2018-04-14T02:28:39.336Z,20.30
2018-04-14T02:31:06.826Z,20.93
2018-04-14T02:33:34.350Z,25.23
2018-04-14T02:36:02.729Z,24.47
2018-04-14T02:38:30.252Z,22.03
2018-04-14T02:40:57.803Z,23.93
2018-04-14T02:43:25.285Z,18.77
2018-04-14T02:45:52.813Z,21.50
2018-04-14T02:48:21.072Z,19.53
2018-04-14T02:50:48.575Z,21.00
2018-04-14T02:53:17.197Z,23.93
2018-04-14T02:55:44.744Z,26.27
2018-04-14T02:58:13.016Z,25.20
2018-04-14T03:00:41.282Z,24.63
2018-04-14T03:03:08.776Z,24.00
2018-04-14T03:05:36.337Z,24.77
2018-04-14T03:08:03.856Z,24.23
2018-04-14T03:10:31.355Z,25.33
2018-04-14T03:12:58.874Z,24.77
2018-04-14T03:15:27.123Z,25.47
2018-04-14T03:17:54.747Z,23.23
2018-04-14T03:20:22.240Z,26.00
2018-04-14T03:22:49.753Z,25.50
2018-04-14T03:25:17.239Z,31.43
2018-04-14T03:27:45.613Z,26.50
2018-04-14T03:30:13.149Z,25.93
2018-04-14T03:32:41.412Z,26.00
2018-04-14T03:35:09.992Z,27.00
2018-04-14T03:37:38.255Z,28.33
2018-04-14T03:40:05.768Z,27.30
2018-04-14T03:42:33.291Z,26.80
2018-04-14T03:45:00.826Z,31.23
2018-04-14T03:47:28.353Z,32.90
2018-04-14T03:49:56.599Z,34.90
2018-04-14T03:52:24.131Z,34.83
2018-04-14T03:54:51.647Z,38.03
2018-04-14T03:57:19.939Z,41.33
2018-04-14T03:59:47.456Z,41.80
2018-04-14T04:02:15.016Z,43.13
2018-04-14T04:04:43.593Z,42.30
2018-04-14T04:07:11.185Z,43.00
2018-04-14T04:09:39.482Z,48.50
2018-04-14T04:12:07.755Z,41.37
2018-04-14T04:14:36.155Z,38.53
2018-04-14T04:17:04.411Z,44.77
2018-04-14T04:19:43.964Z,36.80
2018-04-14T04:22:23.231Z,38.77
2018-04-14T04:25:03.393Z,35.30
2018-04-14T04:27:31.079Z,35.80
2018-04-14T04:29:59.388Z,33.50
2018-04-14T04:32:26.986Z,37.83
2018-04-14T04:34:54.536Z,41.60
2018-04-14T04:37:22.109Z,39.10
2018-04-14T04:39:49.627Z,40.87
2018-04-14T04:42:17.132Z,42.57
2018-04-14T04:44:45.523Z,44.63
2018-04-14T04:47:13.806Z,48.07
2018-04-14T04:49:42.094Z,48.93
2018-04-14T04:52:10.608Z,53.40
2018-04-14T04:54:38.138Z,53.43
2018-04-14T04:57:05.651Z,58.00
2018-04-14T04:59:33.187Z,65.47
2018-04-14T05:02:00.713Z,64.47
2018-04-14T05:04:28.237Z,62.70
2018-04-14T05:06:55.765Z,62.37
2018-04-14T05:09:23.350Z,66.80
2018-04-14T05:11:50.839Z,66.77
2018-04-14T05:14:18.427Z,70.57
2018-04-14T05:16:46.690Z,69.73
2018-04-14T05:19:14.551Z,71.70
2018-04-14T05:21:42.047Z,71.50
2018-04-14T05:24:09.600Z,75.30
2018-04-14T05:26:37.171Z,69.80
2018-04-14T05:29:04.691Z,67.23
2018-04-14T05:31:32.995Z,67.30
2018-04-14T05:34:00.528Z,77.40
2018-04-14T05:36:28.372Z,77.33
2018-04-14T05:38:55.883Z,72.30
2018-04-14T05:41:24.133Z,72.33
2018-04-14T05:43:51.695Z,74.50
2018-04-14T05:46:19.207Z,72.33
2018-04-14T05:48:46.732Z,73.20
2018-04-14T05:51:14.204Z,63.83
2018-04-14T05:53:41.725Z,65.27
2018-04-14T05:56:09.988Z,66.10
2018-04-14T05:58:38.981Z,54.80
2018-04-14T06:01:06.493Z,69.57
2018-04-14T06:03:34.752Z,64.43
2018-04-14T06:06:02.317Z,55.70
2018-04-14T06:08:29.811Z,64.60
2018-04-14T06:10:58.109Z,59.53
2018-04-14T06:13:26.380Z,62.53
2018-04-14T06:15:53.964Z,64.77
2018-04-14T06:18:22.271Z,61.27
2018-04-14T06:20:49.792Z,68.23
2018-04-14T06:23:17.297Z,61.30
2018-04-14T06:25:45.594Z,67.83
2018-04-14T06:28:13.886Z,64.07
2018-04-14T06:30:42.166Z,71.13
2018-04-14T06:33:10.444Z,71.27
2018-04-14T06:35:38.724Z,79.27
2018-04-14T06:38:07.037Z,75.40
2018-04-14T06:40:35.333Z,86.93
2018-04-14T06:43:02.862Z,84.73
2018-04-14T06:45:31.961Z,79.73
2018-04-14T06:47:59.625Z,74.30
2018-04-14T06:50:27.139Z,100.50
2018-04-14T06:52:55.459Z,92.83
2018-04-14T06:55:23.003Z,91.83
2018-04-14T06:57:51.296Z,105.37
2018-04-14T07:00:19.608Z,105.33
2018-04-14T07:02:47.113Z,96.77
2018-04-14T07:05:14.733Z,104.87
2018-04-14T07:07:42.989Z,104.13
2018-04-14T07:10:10.513Z,104.13
2018-04-14T07:12:38.764Z,104.37
2018-04-14T07:15:07.059Z,108.60
2018-04-14T07:17:34.621Z,97.70
2018-04-14T07:20:03.022Z,93.33
2018-04-14T07:22:31.328Z,89.47
2018-04-14T07:24:58.883Z,97.60
2018-04-14T07:27:27.768Z,102.13
2018-04-14T07:29:55.277Z,93.70
2018-04-14T07:32:22.843Z,94.57
2018-04-14T07:34:51.125Z,100.37
2018-04-14T07:37:18.624Z,115.20
2018-04-14T07:39:46.185Z,110.93
2018-04-14T07:42:13.735Z,115.33
2018-04-14T07:44:42.016Z,111.50
2018-04-14T07:47:09.585Z,113.97
2018-04-14T07:49:37.918Z,111.70
2018-04-14T07:52:05.453Z,118.73
2018-04-14T07:54:33.751Z,120.47
2018-04-14T07:57:01.245Z,118.03
2018-04-14T07:59:28.762Z,118.73
2018-04-14T08:01:56.276Z,107.53
2018-04-14T08:04:23.794Z,116.03
2018-04-14T08:06:51.332Z,118.70
2018-04-14T08:09:19.005Z,111.23
2018-04-14T08:11:46.618Z,104.70
2018-04-14T08:14:14.215Z,123.67
2018-04-14T08:16:43.166Z,107.93
2018-04-14T08:19:10.784Z,116.63
2018-04-14T08:21:39.092Z,112.93
2018-04-14T08:24:06.678Z,122.63
2018-04-14T08:26:34.223Z,116.97
2018-04-14T08:29:02.499Z,113.70
2018-04-14T08:31:30.751Z,121.70
2018-04-14T08:33:58.343Z,127.83
2018-04-14T08:36:25.972Z,105.90
2018-04-14T08:38:53.467Z,114.03
2018-04-14T08:41:21.001Z,114.70
2018-04-14T08:43:48.510Z,117.10
2018-04-14T08:46:16.029Z,111.53
2018-04-14T08:48:43.581Z,113.00
2018-04-14T08:51:11.913Z,97.50
2018-04-14T08:53:39.428Z,103.93
2018-04-14T08:56:06.973Z,99.37
2018-04-14T08:58:34.660Z,92.17
2018-04-14T09:01:02.165Z,96.20
2018-04-14T09:03:30.475Z,90.77
2018-04-14T09:05:58.074Z,92.03
2018-04-14T09:08:25.611Z,89.53
2018-04-14T09:10:53.123Z,90.07
2018-04-14T09:13:20.828Z,95.53
2018-04-14T09:15:48.355Z,93.67
2018-04-14T09:18:15.852Z,81.40
2018-04-14T09:20:43.571Z,86.37
2018-04-14T09:23:11.167Z,79.47
2018-04-14T09:25:38.773Z,71.63
2018-04-14T09:28:06.306Z,76.57
2018-04-14T09:30:33.805Z,83.00
2018-04-14T09:33:01.407Z,71.77
2018-04-14T09:35:29.710Z,73.70
2018-04-14T09:37:57.985Z,71.03
2018-04-14T09:40:26.369Z,64.70
2018-04-14T09:42:54.000Z,68.13
2018-04-14T09:45:22.235Z,64.90
2018-04-14T09:47:50.557Z,58.27
2018-04-14T09:50:18.135Z,55.63
2018-04-14T09:52:45.671Z,54.80
2018-04-14T09:55:13.949Z,50.60
2018-04-14T09:57:41.636Z,49.73
2018-04-14T10:00:09.903Z,52.20
2018-04-14T10:02:43.262Z,48.77
2018-04-14T10:05:10.799Z,46.90
2018-04-14T10:07:39.407Z,49.57
2018-04-14T10:10:07.820Z,46.30
2018-04-14T10:12:35.311Z,48.30
2018-04-14T10:15:02.878Z,44.70
2018-04-14T10:17:30.404Z,46.17
2018-04-14T10:19:58.771Z,48.80
2018-04-14T10:22:26.372Z,45.33
2018-04-14T10:24:54.777Z,46.00
2018-04-14T10:27:22.282Z,45.10
2018-04-14T10:29:49.905Z,46.00
2018-04-14T10:32:18.289Z,43.63
2018-04-14T10:34:45.842Z,44.40
2018-04-14T10:37:13.365Z,43.10
2018-04-14T10:39:40.900Z,45.43
2018-04-14T10:42:09.166Z,42.43
2018-04-14T10:44:36.775Z,45.33
2018-04-14T10:47:04.334Z,40.53
2018-04-14T10:49:32.706Z,44.43
2018-04-14T10:52:00.251Z,46.07
2018-04-14T10:54:27.785Z,44.83
2018-04-14T10:56:55.445Z,43.17
2018-04-14T10:59:23.720Z,41.57
2018-04-14T11:01:52.100Z,42.27
2018-04-14T11:04:19.663Z,42.87
2018-04-14T11:06:47.242Z,44.40
2018-04-14T11:09:14.798Z,42.27
2018-04-14T11:11:42.313Z,41.37
2018-04-14T11:14:10.606Z,37.80
2018-04-14T11:16:38.602Z,40.90
2018-04-14T11:19:07.013Z,38.90
2018-04-14T11:21:34.517Z,42.47
2018-04-14T11:24:02.266Z,35.00
2018-04-14T11:26:29.828Z,39.80
2018-04-14T11:28:57.460Z,40.93
2018-04-14T11:31:25.888Z,34.43
2018-04-14T11:33:53.552Z,37.93
2018-04-14T11:36:21.137Z,35.67
2018-04-14T11:38:48.682Z,41.23
2018-04-14T11:41:16.254Z,34.60
2018-04-14T11:43:43.806Z,37.33
2018-04-14T11:46:12.302Z,34.53
2018-04-14T11:48:40.574Z,38.40
2018-04-14T11:51:08.129Z,35.57
2018-04-14T11:53:35.640Z,35.07
2018-04-14T11:56:03.230Z,34.67
2018-04-14T11:58:30.758Z,39.93
2018-04-14T12:00:58.880Z,40.20
2018-04-14T12:03:26.488Z,39.53
2018-04-14T12:05:54.041Z,36.50
2018-04-14T12:08:21.572Z,40.23
2018-04-14T12:10:49.889Z,39.30
2018-04-14T12:13:17.384Z,42.90
2018-04-14T12:15:45.013Z,41.93
2018-04-14T12:18:13.296Z,47.27
2018-04-14T12:20:41.586Z,46.60
2018-04-14T12:23:09.852Z,46.60
2018-04-14T12:25:37.373Z,47.37
2018-04-14T12:28:04.935Z,46.83
2018-04-14T12:30:32.501Z,48.40
2018-04-14T12:33:00.144Z,51.43
2018-04-14T12:35:27.849Z,47.30
2018-04-14T12:37:59.776Z,47.60
2018-04-14T12:40:27.336Z,51.37
2018-04-14T12:42:54.968Z,48.27
2018-04-14T12:45:22.473Z,50.67
2018-04-14T12:47:50.011Z,53.80
2018-04-14T12:50:17.571Z,51.80
2018-04-14T12:52:45.862Z,53.73
2018-04-14T12:55:14.180Z,54.37
2018-04-14T12:57:42.028Z,50.40
2018-04-14T13:00:09.597Z,50.83
2018-04-14T13:02:38.498Z,47.70
2018-04-14T13:05:06.778Z,47.50
2018-04-14T13:07:35.470Z,50.33
2018-04-14T13:10:02.983Z,52.33
2018-04-14T13:12:30.488Z,51.90
2018-04-14T13:14:58.047Z,49.63
2018-04-14T13:17:26.281Z,44.93
2018-04-14T13:19:54.552Z,46.40
2018-04-14T13:22:22.100Z,49.60
2018-04-14T13:24:49.692Z,54.70
2018-04-14T13:27:17.179Z,53.20
2018-04-14T13:29:45.578Z,51.87
2018-04-14T13:32:13.852Z,42.50
2018-04-14T13:34:42.127Z,46.33
2018-04-14T13:37:09.846Z,51.37
2018-04-14T13:39:37.411Z,49.03
2018-04-14T13:42:04.981Z,48.40
2018-04-14T13:44:32.553Z,55.00
2018-04-14T13:47:00.114Z,51.80
2018-04-14T13:49:28.537Z,51.57
2018-04-14T13:51:56.099Z,43.73
2018-04-14T13:54:23.621Z,51.23
2018-04-14T13:56:51.163Z,53.80
2018-04-14T13:59:18.801Z,45.53
2018-04-14T14:01:47.201Z,42.80
2018-04-14T14:04:14.709Z,43.67
2018-04-14T14:06:42.337Z,43.40
2018-04-14T14:09:10.593Z,44.90
2018-04-14T14:11:38.142Z,40.20
2018-04-14T14:14:05.651Z,47.90
2018-04-14T14:16:33.980Z,42.17
2018-04-14T14:19:01.577Z,48.60
2018-04-14T14:21:30.131Z,42.67
2018-04-14T14:23:58.124Z,44.10
2018-04-14T14:26:25.653Z,42.50
2018-04-14T14:28:53.330Z,42.30
2018-04-14T14:31:21.629Z,46.77
2018-04-14T14:33:51.536Z,46.83
2018-04-14T14:36:19.348Z,45.17
2018-04-14T14:38:47.303Z,41.80
2018-04-14T14:41:15.609Z,47.17
2018-04-14T14:43:44.224Z,41.00
2018-04-14T14:46:11.718Z,44.87
2018-04-14T14:48:39.392Z,49.17
2018-04-14T14:51:06.924Z,48.13
2018-04-14T14:53:34.497Z,48.23
2018-04-14T14:56:02.004Z,47.50
2018-04-14T14:58:29.500Z,47.37
2018-04-14T15:00:57.056Z,47.40
2018-04-14T15:03:25.321Z,43.90
2018-04-14T15:05:52.912Z,46.87
2018-04-14T15:08:20.568Z,46.53
2018-04-14T15:10:48.180Z,43.87
2018-04-14T15:13:15.772Z,48.37
2018-04-14T15:15:44.076Z,41.10
2018-04-14T15:18:11.613Z,41.80
2018-04-14T15:20:39.207Z,44.00
2018-04-14T15:23:07.572Z,43.50
2018-04-14T15:25:35.116Z,46.23
2018-04-14T15:28:02.654Z,44.97
2018-04-14T15:30:30.200Z,42.57
2018-04-14T15:32:58.322Z,37.97
2018-04-14T15:35:25.874Z,36.67
2018-04-14T15:37:54.273Z,38.47
2018-04-14T15:40:21.857Z,37.73
2018-04-14T15:42:49.385Z,34.50
2018-04-14T15:45:16.929Z,36.57
2018-04-14T15:47:44.465Z,35.40
2018-04-14T15:50:12.029Z,30.97
2018-04-14T15:52:39.593Z,34.90
2018-04-14T15:55:07.895Z,35.10
2018-04-14T15:57:35.491Z,34.40
2018-04-14T16:00:03.144Z,39.07
2018-04-14T16:02:30.641Z,49.03
2018-04-14T16:04:58.168Z,48.87
2018-04-14T16:07:26.539Z,50.63
2018-04-14T16:09:54.956Z,49.03
2018-04-14T16:12:22.469Z,50.77
2018-04-14T16:14:50.124Z,52.40
2018-04-14T16:17:17.697Z,46.10
2018-04-14T16:19:45.347Z,46.80
2018-04-14T16:22:12.873Z,40.40
2018-04-14T16:24:40.411Z,46.73
2018-04-14T16:27:08.046Z,48.30
2018-04-14T16:29:36.310Z,45.60
2018-04-14T16:32:03.880Z,42.37
2018-04-14T16:34:31.464Z,44.93
2018-04-14T16:36:59.027Z,46.93
2018-04-14T16:39:26.564Z,44.47
2018-04-14T16:41:54.143Z,46.37
2018-04-14T16:44:21.664Z,47.40
2018-04-14T16:46:50.060Z,46.03
2018-04-14T16:49:17.674Z,41.13
2018-04-14T16:51:45.210Z,45.03
2018-04-14T16:54:13.578Z,41.33
2018-04-14T16:56:41.153Z,45.40
2018-04-14T16:59:09.641Z,46.63
2018-04-14T17:01:37.141Z,40.30
2018-04-14T17:04:04.806Z,36.27
2018-04-14T17:06:33.099Z,38.80
2018-04-14T17:09:01.384Z,39.60
2018-04-14T17:11:29.777Z,37.10
2018-04-14T17:13:58.200Z,36.27
2018-04-14T17:16:25.897Z,39.53
2018-04-14T17:18:54.657Z,36.93
2018-04-14T17:21:22.193Z,41.20
2018-04-14T17:23:50.528Z,36.10
2018-04-14T17:26:18.214Z,53.87
2018-04-14T17:28:45.777Z,46.80
2018-04-14T17:31:13.433Z,46.53
2018-04-14T17:33:41.342Z,40.50
2018-04-14T17:36:09.217Z,91.37
2018-04-14T17:38:36.860Z,68.93
2018-04-14T17:41:04.393Z,53.73
2018-04-14T17:43:31.922Z,37.00
2018-04-14T17:45:59.451Z,49.00
2018-04-14T17:48:27.900Z,44.30
2018-04-14T17:50:55.449Z,45.00
2018-04-14T17:53:23.102Z,38.20
2018-04-14T17:55:51.377Z,44.70
2018-04-14T17:58:19.825Z,41.63
2018-04-14T18:00:47.380Z,39.37
2018-04-14T18:03:14.919Z,39.00
2018-04-14T18:05:43.218Z,50.17
2018-04-14T18:08:10.727Z,178.13
2018-04-14T18:10:38.328Z,129.40
2018-04-14T18:13:05.863Z,133.63
2018-04-14T18:15:33.443Z,105.23
2018-04-14T18:18:00.988Z,92.50
2018-04-14T18:20:28.506Z,61.50
2018-04-14T18:22:56.043Z,54.73
2018-04-14T18:25:23.594Z,53.53
2018-04-14T18:27:51.143Z,50.83
2018-04-14T18:30:19.470Z,55.13
2018-04-14T18:32:46.962Z,53.30
2018-04-14T18:35:14.530Z,55.43
2018-04-14T18:37:42.064Z,49.70
2018-04-14T18:40:10.168Z,55.23
2018-04-14T18:42:37.747Z,54.27
2018-04-14T18:45:05.360Z,54.33
2018-04-14T18:47:32.917Z,56.33
2018-04-14T18:50:00.471Z,59.13
2018-04-14T18:52:28.939Z,66.23
2018-04-14T18:54:56.477Z,60.90
2018-04-14T18:57:24.742Z,59.37
2018-04-14T18:59:52.282Z,65.13
2018-04-14T19:02:19.898Z,68.20
2018-04-14T19:04:47.523Z,65.40
2018-04-14T19:07:15.051Z,90.30
2018-04-14T19:09:42.706Z,113.27
2018-04-14T19:12:10.310Z,118.27
2018-04-14T19:14:38.617Z,112.07
2018-04-14T19:17:06.126Z,116.30
2018-04-14T19:19:33.739Z,113.53
2018-04-14T19:22:02.265Z,96.70
2018-04-14T19:24:29.931Z,100.00
2018-04-14T19:26:57.497Z,104.73
2018-04-14T19:29:25.173Z,96.77
2018-04-14T19:31:52.682Z,104.37
2018-04-14T19:34:20.258Z,108.73
2018-04-14T19:36:47.895Z,103.60
2018-04-14T19:39:15.424Z,103.23
2018-04-14T19:41:43.848Z,108.03
2018-04-14T19:44:11.445Z,113.67
2018-04-14T19:46:38.996Z,116.03
2018-04-14T19:49:06.532Z,131.20
2018-04-14T19:51:34.222Z,136.13
2018-04-14T19:54:02.634Z,127.33
2018-04-14T19:56:30.179Z,126.83
2018-04-14T19:58:58.477Z,126.20
2018-04-14T20:01:26.804Z,113.17
2018-04-14T20:03:54.364Z,110.97
2018-04-14T20:06:21.921Z,104.87
2018-04-14T20:08:49.494Z,96.00
2018-04-14T20:11:17.125Z,103.47
2018-04-14T20:13:44.633Z,90.67
2018-04-14T20:16:12.248Z,92.37
2018-04-14T20:18:39.794Z,96.83
2018-04-14T20:21:07.330Z,93.40
2018-04-14T20:23:35.617Z,101.63
2018-04-14T20:26:03.930Z,91.77
2018-04-14T20:28:31.476Z,97.40
2018-04-14T20:30:59.788Z,92.80
2018-04-14T20:33:27.330Z,89.90
2018-04-14T20:35:54.860Z,93.63
2018-04-14T20:38:22.623Z,90.57
2018-04-14T20:40:50.255Z,85.83
2018-04-14T20:43:18.701Z,87.03
2018-04-14T20:45:46.788Z,92.47
2018-04-14T20:48:14.390Z,86.73
2018-04-14T20:50:42.110Z,99.93
2018-04-14T20:53:09.643Z,81.10
2018-04-14T20:55:37.958Z,94.83
2018-04-14T20:58:05.502Z,78.33
2018-04-14T21:00:33.029Z,92.03
2018-04-14T21:03:00.683Z,93.70
2018-04-14T21:05:28.347Z,81.80
2018-04-14T21:07:55.903Z,90.67
2018-04-14T21:10:24.206Z,79.93
2018-04-14T21:12:51.726Z,88.70
2018-04-14T21:15:19.334Z,97.53
2018-04-14T21:17:47.633Z,79.70
2018-04-14T21:20:16.044Z,84.13
2018-04-14T21:22:43.542Z,45.87
2018-04-14T21:25:11.091Z,58.93
2018-04-14T21:27:38.620Z,72.53
2018-04-14T21:30:06.938Z,72.00
2018-04-14T21:32:34.458Z,74.90
2018-04-14T21:35:02.021Z,74.87
2018-04-14T21:37:29.539Z,64.53
2018-04-14T21:39:57.154Z,68.47
2018-04-14T21:42:24.695Z,68.77
2018-04-14T21:44:52.221Z,72.83
2018-04-14T21:47:19.843Z,75.23
2018-04-14T21:49:47.342Z,75.83
2018-04-14T21:52:14.844Z,78.30
2018-04-14T21:54:43.146Z,75.97
2018-04-14T21:57:11.530Z,78.10
2018-04-14T21:59:39.829Z,81.00
2018-04-14T22:02:07.355Z,84.77
2018-04-14T22:04:34.948Z,94.13
2018-04-14T22:07:03.953Z,83.13
2018-04-14T22:09:31.560Z,86.47
2018-04-14T22:11:59.070Z,89.20
2018-04-14T22:14:32.469Z,94.53
2018-04-14T22:17:00.027Z,83.80
2018-04-14T22:19:27.522Z,89.87
2018-04-14T22:21:55.042Z,85.43
2018-04-14T22:24:23.353Z,90.17
2018-04-14T22:26:50.843Z,101.67
2018-04-14T22:29:18.375Z,98.33
2018-04-14T22:31:46.651Z,88.37
2018-04-14T22:34:15.036Z,97.23
2018-04-14T22:36:43.338Z,102.07
2018-04-14T22:39:11.595Z,97.10
2018-04-14T22:41:39.119Z,105.23
2018-04-14T22:44:06.765Z,102.13
2018-04-14T22:46:35.147Z,102.80
2018-04-14T22:49:02.925Z,91.57
2018-04-14T22:51:30.414Z,100.07
2018-04-14T22:53:58.791Z,109.43
2018-04-14T22:56:27.040Z,112.73
2018-04-14T22:58:55.177Z,99.93
2018-04-14T23:01:23.472Z,103.47
2018-04-14T23:03:51.015Z,113.13
2018-04-14T23:06:18.719Z,104.10
2018-04-14T23:08:46.270Z,111.43
2018-04-14T23:11:14.564Z,111.67
2018-04-14T23:13:43.687Z,105.03
2018-04-14T23:16:11.210Z,96.70
2018-04-14T23:18:38.756Z,97.57
2018-04-14T23:21:06.275Z,110.47
2018-04-14T23:23:34.663Z,97.03
2018-04-14T23:26:02.965Z,102.80
2018-04-14T23:28:30.469Z,99.17
2018-04-14T23:30:57.995Z,99.40
2018-04-14T23:33:26.478Z,104.40
2018-04-14T23:35:54.002Z,112.53
2018-04-14T23:38:23.363Z,111.87
2018-04-14T23:40:50.849Z,107.27
2018-04-14T23:43:19.122Z,101.87
2018-04-14T23:45:46.675Z,105.50
2018-04-14T23:48:14.171Z,100.03
2018-04-14T23:50:42.657Z,100.53
2018-04-14T23:53:10.155Z,95.70
2018-04-14T23:55:37.689Z,112.73
2018-04-14T23:58:05.173Z,98.90
